createdAt,value
2023-03-30T00:00:17.743Z,77.21
2023-03-30T00:01:17.692Z,77.51
2023-03-30T00:02:17.674Z,77.86
2023-03-30T00:03:17.810Z,77.55
2023-03-30T00:04:17.764Z,77.65
2023-03-30T00:05:17.718Z,78.27
2023-03-30T00:06:17.652Z,78.27
2023-03-30T00:07:17.752Z,78.27
2023-03-30T00:08:17.611Z,77.75
2023-03-30T00:09:17.632Z,77.55
2023-03-30T00:10:17.658Z,78.06
2023-03-30T00:11:17.661Z,77.62
2023-03-30T00:12:17.653Z,77.65
2023-03-30T00:13:17.561Z,78.12
2023-03-30T00:14:17.545Z,77.86
2023-03-30T00:15:17.557Z,78.16
2023-03-30T00:16:17.566Z,78.37
2023-03-30T00:17:17.532Z,78.37
2023-03-30T00:18:17.544Z,78.37
2023-03-30T00:19:17.727Z,78.77
2023-03-30T00:20:17.580Z,78.77
2023-03-30T00:21:17.472Z,78.37
2023-03-30T00:22:17.494Z,78.50
2023-03-30T00:23:17.497Z,78.09
2023-03-30T00:24:17.473Z,78.71
2023-03-30T00:25:17.480Z,78.91
2023-03-30T00:26:17.477Z,78.91
2023-03-30T00:27:17.432Z,78.61
2023-03-30T00:28:17.433Z,78.50
2023-03-30T00:29:17.445Z,78.20
2023-03-30T00:30:17.436Z,78.57
2023-03-30T00:31:17.457Z,78.41
2023-03-30T00:32:17.405Z,78.57
2023-03-30T00:33:17.378Z,77.96
2023-03-30T00:34:17.405Z,78.27
2023-03-30T00:35:17.396Z,78.16
2023-03-30T00:36:17.529Z,77.75
2023-03-30T00:37:17.337Z,78.27
2023-03-30T00:38:17.332Z,77.96
2023-03-30T00:39:17.322Z,78.30
2023-03-30T00:40:17.322Z,78.37
2023-03-30T00:41:17.323Z,77.55
2023-03-30T00:42:17.322Z,76.63
2023-03-30T00:43:17.316Z,76.84
2023-03-30T00:44:17.292Z,77.45
2023-03-30T00:45:17.269Z,77.14
2023-03-30T00:46:17.261Z,77.25
2023-03-30T00:47:17.253Z,76.84
2023-03-30T00:48:17.249Z,76.32
2023-03-30T00:49:17.294Z,76.32
2023-03-30T00:50:17.280Z,76.43
2023-03-30T00:51:17.228Z,76.59
2023-03-30T00:52:17.213Z,76.63
2023-03-30T00:53:17.276Z,76.43
2023-03-30T00:54:17.202Z,76.63
2023-03-30T00:55:17.188Z,76.80
2023-03-30T00:56:17.196Z,76.50
2023-03-30T00:57:17.195Z,76.70
2023-03-30T00:58:17.120Z,76.50
2023-03-30T00:59:17.117Z,76.59
2023-03-30T01:00:17.173Z,76.70
2023-03-30T01:01:17.117Z,76.73
2023-03-30T01:02:17.110Z,76.43
2023-03-30T01:03:17.131Z,76.63
2023-03-30T01:04:17.098Z,76.63
2023-03-30T01:05:17.078Z,76.63
2023-03-30T01:06:17.077Z,76.63
2023-03-30T01:07:17.035Z,76.73
2023-03-30T01:08:17.035Z,76.53
2023-03-30T01:09:17.024Z,77.34
2023-03-30T01:10:17.030Z,76.43
2023-03-30T01:11:17.046Z,77.14
2023-03-30T01:12:17.040Z,76.43
2023-03-30T01:13:16.966Z,76.93
2023-03-30T01:14:17.028Z,76.22
2023-03-30T01:15:16.981Z,76.84
2023-03-30T01:16:16.981Z,76.63
2023-03-30T01:17:16.970Z,76.77
2023-03-30T01:18:16.928Z,76.56
2023-03-30T01:19:16.944Z,76.46
2023-03-30T01:20:16.938Z,76.53
2023-03-30T01:21:16.953Z,76.73
2023-03-30T01:22:16.878Z,76.32
2023-03-30T01:23:16.932Z,76.63
2023-03-30T01:24:16.878Z,76.12
2023-03-30T01:25:16.877Z,76.16
2023-03-30T01:26:16.840Z,76.02
2023-03-30T01:27:16.849Z,75.82
2023-03-30T01:28:16.866Z,76.32
2023-03-30T01:29:16.834Z,75.20
2023-03-30T01:30:16.864Z,75.00
2023-03-30T01:31:16.846Z,75.10
2023-03-30T01:32:16.865Z,75.00
2023-03-30T01:33:16.825Z,75.20
2023-03-30T01:34:16.793Z,75.61
2023-03-30T01:35:16.881Z,75.51
2023-03-30T01:36:16.804Z,75.41
2023-03-30T01:37:16.768Z,74.93
2023-03-30T01:38:16.787Z,75.82
2023-03-30T01:39:16.766Z,75.92
2023-03-30T01:40:16.729Z,75.82
2023-03-30T01:41:16.715Z,76.36
2023-03-30T01:42:16.695Z,76.32
2023-03-30T01:43:16.725Z,76.46
2023-03-30T01:44:16.724Z,76.36
2023-03-30T01:45:16.672Z,76.06
2023-03-30T01:46:16.733Z,76.56
2023-03-30T01:47:16.651Z,76.67
2023-03-30T01:48:16.688Z,76.06
2023-03-30T01:49:16.655Z,76.26
2023-03-30T01:50:16.632Z,76.26
2023-03-30T01:51:16.615Z,76.36
2023-03-30T01:52:16.637Z,76.67
2023-03-30T01:53:16.615Z,76.67
2023-03-30T01:54:16.674Z,76.81
2023-03-30T01:55:16.596Z,76.40
2023-03-30T01:56:17.596Z,76.46
2023-03-30T01:57:16.613Z,76.81
2023-03-30T01:58:16.543Z,76.81
2023-03-30T01:59:16.662Z,76.36
2023-03-30T02:00:16.550Z,76.19
2023-03-30T02:01:16.505Z,75.78
2023-03-30T02:02:16.560Z,76.19
2023-03-30T02:03:16.568Z,75.27
2023-03-30T02:04:16.478Z,75.24
2023-03-30T02:05:16.561Z,75.48
2023-03-30T02:06:16.498Z,75.34
2023-03-30T02:07:16.552Z,75.58
2023-03-30T02:08:16.435Z,75.58
2023-03-30T02:09:16.450Z,75.37
2023-03-30T02:10:16.429Z,75.07
2023-03-30T02:11:42.357Z,75.17
2023-03-30T02:12:16.423Z,75.48
2023-03-30T02:13:16.437Z,75.27
2023-03-30T02:14:16.449Z,74.97
2023-03-30T02:15:16.401Z,75.27
2023-03-30T02:16:16.460Z,75.07
2023-03-30T02:17:16.373Z,76.23
2023-03-30T02:18:17.336Z,76.09
2023-03-30T02:19:16.365Z,75.31
2023-03-30T02:20:16.373Z,75.92
2023-03-30T02:21:16.330Z,75.07
2023-03-30T02:22:16.349Z,75.37
2023-03-30T02:23:16.287Z,75.58
2023-03-30T02:24:16.280Z,75.48
2023-03-30T02:25:16.284Z,74.87
2023-03-30T02:26:16.300Z,75.37
2023-03-30T02:27:16.365Z,75.31
2023-03-30T02:28:16.285Z,75.48
2023-03-30T02:29:16.238Z,75.48
2023-03-30T02:30:16.209Z,75.48
2023-03-30T02:31:16.373Z,75.31
2023-03-30T02:32:16.197Z,75.78
2023-03-30T02:33:16.242Z,75.07
2023-03-30T02:34:16.167Z,75.07
2023-03-30T02:35:16.163Z,74.97
2023-03-30T02:36:16.177Z,75.17
2023-03-30T02:37:16.133Z,74.46
2023-03-30T02:38:16.179Z,74.87
2023-03-30T02:39:16.142Z,74.76
2023-03-30T02:40:16.146Z,74.56
2023-03-30T02:41:16.132Z,74.76
2023-03-30T02:42:16.089Z,74.66
2023-03-30T02:43:16.097Z,74.66
2023-03-30T02:44:16.139Z,74.66
2023-03-30T02:45:16.111Z,74.97
2023-03-30T02:46:16.108Z,74.66
2023-03-30T02:47:16.065Z,75.17
2023-03-30T02:48:16.041Z,75.07
2023-03-30T02:49:16.109Z,75.48
2023-03-30T02:50:16.061Z,74.46
2023-03-30T02:51:16.003Z,73.91
2023-03-30T02:52:15.997Z,74.56
2023-03-30T02:53:15.994Z,74.22
2023-03-30T02:54:16.006Z,73.91
2023-03-30T02:55:16.022Z,74.42
2023-03-30T02:56:15.972Z,74.11
2023-03-30T02:57:16.081Z,74.32
2023-03-30T02:58:15.962Z,74.32
2023-03-30T02:59:15.968Z,74.42
2023-03-30T03:00:15.927Z,74.11
2023-03-30T03:01:15.989Z,73.81
2023-03-30T03:02:15.971Z,74.08
2023-03-30T03:03:16.033Z,74.42
2023-03-30T03:04:15.894Z,74.01
2023-03-30T03:05:15.887Z,74.18
2023-03-30T03:06:15.871Z,73.40
2023-03-30T03:07:15.864Z,72.89
2023-03-30T03:08:15.867Z,72.99
2023-03-30T03:09:15.847Z,73.50
2023-03-30T03:10:15.852Z,73.19
2023-03-30T03:11:15.817Z,73.40
2023-03-30T03:12:15.819Z,73.30
2023-03-30T03:13:15.800Z,73.30
2023-03-30T03:14:15.849Z,72.96
2023-03-30T03:15:15.812Z,72.75
2023-03-30T03:16:15.824Z,72.48
2023-03-30T03:17:15.875Z,72.96
2023-03-30T03:18:15.756Z,74.32
2023-03-30T03:19:15.738Z,73.91
2023-03-30T03:20:15.762Z,74.83
2023-03-30T03:21:15.701Z,74.59
2023-03-30T03:22:15.771Z,75.13
2023-03-30T03:23:15.696Z,75.13
2023-03-30T03:24:15.746Z,76.26
2023-03-30T03:25:15.686Z,76.81
2023-03-30T03:26:15.701Z,76.40
2023-03-30T03:27:15.665Z,78.03
2023-03-30T03:28:15.685Z,78.75
2023-03-30T03:29:15.642Z,79.60
2023-03-30T03:30:15.684Z,80.32
2023-03-30T03:31:15.711Z,81.03
2023-03-30T03:32:15.601Z,81.44
2023-03-30T03:33:15.612Z,80.87
2023-03-30T03:34:15.602Z,81.24
2023-03-30T03:35:15.617Z,81.88
2023-03-30T03:36:15.687Z,82.64
2023-03-30T03:37:15.613Z,82.60
2023-03-30T03:38:15.617Z,82.60
2023-03-30T03:39:15.524Z,82.54
2023-03-30T03:40:15.546Z,82.43
2023-03-30T03:41:15.539Z,82.03
2023-03-30T03:42:15.509Z,82.09
2023-03-30T03:43:15.512Z,82.40
2023-03-30T03:44:15.551Z,81.88
2023-03-30T03:45:15.490Z,81.68
2023-03-30T03:46:15.573Z,82.43
2023-03-30T03:47:16.571Z,82.13
2023-03-30T03:48:16.468Z,82.75
2023-03-30T03:49:15.430Z,83.15
2023-03-30T03:50:15.439Z,83.15
2023-03-30T03:51:15.496Z,82.95
2023-03-30T03:52:15.431Z,82.95
2023-03-30T03:53:15.442Z,82.23
2023-03-30T03:54:15.435Z,82.75
2023-03-30T03:55:15.407Z,82.84
2023-03-30T03:56:15.402Z,82.84
2023-03-30T03:57:15.473Z,83.05
2023-03-30T03:58:15.367Z,82.95
2023-03-30T03:59:15.444Z,83.05
2023-03-30T04:00:15.453Z,82.43
2023-03-30T04:01:15.398Z,82.95
2023-03-30T04:02:15.365Z,83.25
2023-03-30T04:03:15.419Z,84.22
2023-03-30T04:04:15.341Z,84.07
2023-03-30T04:05:15.321Z,84.28
2023-03-30T04:06:15.303Z,83.76
2023-03-30T04:07:15.406Z,83.91
2023-03-30T04:08:15.271Z,83.87
2023-03-30T04:09:15.293Z,83.97
2023-03-30T04:10:15.257Z,83.76
2023-03-30T04:11:15.266Z,84.79
2023-03-30T04:12:15.256Z,84.17
2023-03-30T04:13:15.235Z,84.79
2023-03-30T04:14:15.213Z,85.30
2023-03-30T04:15:15.216Z,85.10
2023-03-30T04:16:15.204Z,85.30
2023-03-30T04:17:15.203Z,85.81
2023-03-30T04:18:15.227Z,85.71
2023-03-30T04:19:15.160Z,85.81
2023-03-30T04:20:15.197Z,85.91
2023-03-30T04:21:15.154Z,86.49
2023-03-30T04:22:15.151Z,86.32
2023-03-30T04:23:15.123Z,86.79
2023-03-30T04:24:15.115Z,86.59
2023-03-30T04:25:15.151Z,87.14
2023-03-30T04:26:15.181Z,87.20
2023-03-30T04:27:15.117Z,87.51
2023-03-30T04:28:15.097Z,87.82
2023-03-30T04:29:15.048Z,87.82
2023-03-30T04:30:15.076Z,87.51
2023-03-30T04:31:15.109Z,87.10
2023-03-30T04:32:15.062Z,87.57
2023-03-30T04:33:15.046Z,86.76
2023-03-30T04:34:15.026Z,86.44
2023-03-30T04:35:15.005Z,86.44
2023-03-30T04:36:15.094Z,86.24
2023-03-30T04:37:14.997Z,86.51
2023-03-30T04:38:14.982Z,86.71
2023-03-30T04:39:14.991Z,86.51
2023-03-30T04:40:14.957Z,86.51
2023-03-30T04:41:14.970Z,86.71
2023-03-30T04:42:14.947Z,86.51
2023-03-30T04:43:14.937Z,86.71
2023-03-30T04:44:14.951Z,86.61
2023-03-30T04:45:14.941Z,86.51
2023-03-30T04:46:14.942Z,86.71
2023-03-30T04:47:14.886Z,86.10
2023-03-30T04:48:14.879Z,85.65
2023-03-30T04:49:14.888Z,85.59
2023-03-30T04:50:14.863Z,86.16
2023-03-30T04:51:14.854Z,86.98
2023-03-30T04:52:14.843Z,86.71
2023-03-30T04:53:14.864Z,86.61
2023-03-30T04:54:14.833Z,87.02
2023-03-30T04:55:14.821Z,86.61
2023-03-30T04:56:14.819Z,86.61
2023-03-30T04:57:14.833Z,87.12
2023-03-30T04:58:14.768Z,87.12
2023-03-30T04:59:14.773Z,87.12
2023-03-30T05:00:14.812Z,87.53
2023-03-30T05:01:14.781Z,87.73
2023-03-30T05:02:14.797Z,87.43
2023-03-30T05:03:14.911Z,87.32
2023-03-30T05:04:14.715Z,87.63
2023-03-30T05:05:14.710Z,87.84
2023-03-30T05:06:14.721Z,88.35
2023-03-30T05:07:14.724Z,88.85
2023-03-30T05:08:14.707Z,88.96
2023-03-30T05:09:14.680Z,89.47
2023-03-30T05:10:14.667Z,89.37
2023-03-30T05:11:14.672Z,89.20
2023-03-30T05:12:14.656Z,89.47
2023-03-30T05:13:14.643Z,89.37
2023-03-30T05:14:19.520Z,89.98
2023-03-30T05:15:15.978Z,90.29
2023-03-30T05:16:14.956Z,90.39
2023-03-30T05:17:14.671Z,89.98
2023-03-30T05:18:16.999Z,90.29
2023-03-30T05:19:15.498Z,90.59
2023-03-30T05:20:14.579Z,90.90
2023-03-30T05:21:14.636Z,90.96
2023-03-30T05:22:14.654Z,91.00
2023-03-30T05:23:14.547Z,90.96
2023-03-30T05:24:14.588Z,91.06
2023-03-30T05:25:16.482Z,90.90
2023-03-30T05:26:18.045Z,90.75
2023-03-30T05:27:18.476Z,90.66
2023-03-30T05:28:15.481Z,90.31
2023-03-30T05:29:16.983Z,90.14
2023-03-30T05:30:14.540Z,90.20
2023-03-30T05:31:14.652Z,89.28
2023-03-30T05:32:16.047Z,89.14
2023-03-30T05:33:14.990Z,88.02
2023-03-30T05:34:16.483Z,86.63
2023-03-30T05:35:14.977Z,86.83
2023-03-30T05:36:15.094Z,86.80
2023-03-30T05:37:14.995Z,86.80
2023-03-30T05:38:14.980Z,85.98
2023-03-30T05:39:14.975Z,86.04
2023-03-30T05:40:15.473Z,85.63
2023-03-30T05:41:15.971Z,84.33
2023-03-30T05:42:14.977Z,83.89
2023-03-30T05:43:17.079Z,82.89
2023-03-30T05:44:16.995Z,82.10
2023-03-30T05:45:15.978Z,80.74
2023-03-30T05:46:15.070Z,79.08
2023-03-30T05:47:15.568Z,78.03
2023-03-30T05:48:15.099Z,77.38
2023-03-30T05:49:15.976Z,76.23
2023-03-30T05:50:15.105Z,75.69
2023-03-30T05:51:14.435Z,75.55
2023-03-30T05:52:16.489Z,75.28
2023-03-30T05:53:15.184Z,75.82
2023-03-30T05:54:17.516Z,76.20
2023-03-30T05:55:15.099Z,78.57
2023-03-30T05:56:16.978Z,79.36
2023-03-30T05:57:15.694Z,80.37
2023-03-30T05:58:14.222Z,82.04
2023-03-30T05:59:14.977Z,81.67
2023-03-30T06:00:15.045Z,82.59
2023-03-30T06:01:15.120Z,83.54
2023-03-30T06:02:14.192Z,83.81
2023-03-30T06:03:17.101Z,84.15
2023-03-30T06:04:17.078Z,83.74
2023-03-30T06:05:15.978Z,83.37
2023-03-30T06:06:15.981Z,83.48
2023-03-30T06:07:14.594Z,83.68
2023-03-30T06:08:16.532Z,83.48
2023-03-30T06:09:16.480Z,84.53
2023-03-30T06:10:16.572Z,84.94
2023-03-30T06:11:15.005Z,85.35
2023-03-30T06:12:15.977Z,86.10
2023-03-30T06:13:17.037Z,86.86
2023-03-30T06:14:16.141Z,87.47
2023-03-30T06:15:14.415Z,87.92
2023-03-30T06:16:14.285Z,88.78
2023-03-30T06:17:14.979Z,89.14
2023-03-30T06:18:17.639Z,89.39
2023-03-30T06:19:16.988Z,89.90
2023-03-30T06:20:15.473Z,90.10
2023-03-30T06:21:14.616Z,89.90
2023-03-30T06:22:14.660Z,90.20
2023-03-30T06:23:14.327Z,90.41
2023-03-30T06:24:14.520Z,90.61
2023-03-30T06:25:14.728Z,90.51
2023-03-30T06:26:15.529Z,90.41
2023-03-30T06:27:15.987Z,90.41
2023-03-30T06:28:16.978Z,90.61
2023-03-30T06:29:14.994Z,90.71
2023-03-30T06:30:15.106Z,90.71
2023-03-30T06:31:15.525Z,90.92
2023-03-30T06:32:15.055Z,91.06
2023-03-30T06:33:15.482Z,91.43
2023-03-30T06:34:15.495Z,91.47
2023-03-30T06:35:14.478Z,91.22
2023-03-30T06:36:14.553Z,91.57
2023-03-30T06:37:15.972Z,91.27
2023-03-30T06:38:16.480Z,91.16
2023-03-30T06:39:14.499Z,91.57
2023-03-30T06:40:15.638Z,91.06
2023-03-30T06:41:14.572Z,91.06
2023-03-30T06:42:16.972Z,90.90
2023-03-30T06:43:16.068Z,91.16
2023-03-30T06:44:14.507Z,90.55
2023-03-30T06:45:13.806Z,90.45
2023-03-30T06:46:14.569Z,90.75
2023-03-30T06:47:15.649Z,90.55
2023-03-30T06:48:20.679Z,90.96
2023-03-30T06:49:16.019Z,90.75
2023-03-30T06:50:17.986Z,90.55
2023-03-30T06:51:14.505Z,90.25
2023-03-30T06:52:14.490Z,90.66
2023-03-30T06:53:14.762Z,90.35
2023-03-30T06:54:17.488Z,90.31
2023-03-30T06:55:16.482Z,90.55
2023-03-30T06:56:15.375Z,90.45
2023-03-30T06:57:16.664Z,90.35
2023-03-30T06:58:16.512Z,89.84
2023-03-30T06:59:15.976Z,90.14
2023-03-30T07:00:15.128Z,90.45
2023-03-30T07:01:14.551Z,90.25
2023-03-30T07:02:16.751Z,89.90
2023-03-30T07:03:14.517Z,90.14
2023-03-30T07:04:14.557Z,89.39
2023-03-30T07:05:15.082Z,89.28
2023-03-30T07:06:15.005Z,89.59
2023-03-30T07:07:13.663Z,89.49
2023-03-30T07:08:14.107Z,89.59
2023-03-30T07:09:14.476Z,89.69
2023-03-30T07:10:14.478Z,89.28
2023-03-30T07:11:15.040Z,89.08
2023-03-30T07:12:17.182Z,89.79
2023-03-30T07:13:15.503Z,89.79
2023-03-30T07:14:14.993Z,89.59
2023-03-30T07:15:16.491Z,89.90
2023-03-30T07:16:14.614Z,89.79
2023-03-30T07:17:14.608Z,90.00
2023-03-30T07:18:14.297Z,90.00
2023-03-30T07:19:14.985Z,89.90
2023-03-30T07:20:13.998Z,90.00
2023-03-30T07:21:14.489Z,90.20
2023-03-30T07:22:16.000Z,90.00
2023-03-30T07:23:15.989Z,89.39
2023-03-30T07:24:15.083Z,89.59
2023-03-30T07:25:17.544Z,89.39
2023-03-30T07:26:14.619Z,89.39
2023-03-30T07:27:16.984Z,88.98
2023-03-30T07:28:14.533Z,89.28
2023-03-30T07:29:15.987Z,89.34
2023-03-30T07:30:21.211Z,89.28
2023-03-30T07:31:17.094Z,90.10
2023-03-30T07:32:17.039Z,89.08
2023-03-30T07:33:13.424Z,90.10
2023-03-30T07:34:13.992Z,90.00
2023-03-30T07:35:16.022Z,89.45
2023-03-30T07:36:15.067Z,89.59
2023-03-30T07:37:20.318Z,90.00
2023-03-30T07:38:16.568Z,90.10
2023-03-30T07:39:14.995Z,89.69
2023-03-30T07:40:15.057Z,89.86
2023-03-30T07:41:14.096Z,89.65
2023-03-30T07:42:14.990Z,89.55
2023-03-30T07:43:14.019Z,89.75
2023-03-30T07:44:16.013Z,89.96
2023-03-30T07:45:15.624Z,90.16
2023-03-30T07:46:16.514Z,90.16
2023-03-30T07:47:13.143Z,90.06
2023-03-30T07:48:13.407Z,89.92
2023-03-30T07:49:14.985Z,89.92
2023-03-30T07:50:13.120Z,89.61
2023-03-30T07:51:13.140Z,90.16
2023-03-30T07:52:13.148Z,89.86
2023-03-30T07:53:13.091Z,90.16
2023-03-30T07:54:13.323Z,89.81
2023-03-30T07:55:13.066Z,90.22
2023-03-30T07:56:13.079Z,90.22
2023-03-30T07:57:14.409Z,90.32
2023-03-30T07:58:13.061Z,90.22
2023-03-30T07:59:13.113Z,90.22
2023-03-30T08:00:12.995Z,90.32
2023-03-30T08:01:13.025Z,90.32
2023-03-30T08:02:12.989Z,90.42
2023-03-30T08:03:13.090Z,90.47
2023-03-30T08:04:13.058Z,90.53
2023-03-30T08:05:13.068Z,90.83
2023-03-30T08:06:12.952Z,90.53
2023-03-30T08:07:12.948Z,90.83
2023-03-30T08:08:12.956Z,90.94
2023-03-30T08:09:12.920Z,91.14
2023-03-30T08:10:12.940Z,91.24
2023-03-30T08:11:12.910Z,91.44
2023-03-30T08:12:44.840Z,91.35
2023-03-30T08:13:12.922Z,91.35
2023-03-30T08:14:12.944Z,91.35
2023-03-30T08:15:12.912Z,91.35
2023-03-30T08:16:12.915Z,91.65
2023-03-30T08:17:12.941Z,91.61
2023-03-30T08:18:13.057Z,91.20
2023-03-30T08:19:12.855Z,90.99
2023-03-30T08:20:12.838Z,90.75
2023-03-30T08:21:12.900Z,90.24
2023-03-30T08:22:12.877Z,89.79
2023-03-30T08:23:12.827Z,88.77
2023-03-30T08:24:12.832Z,88.53
2023-03-30T08:25:12.826Z,87.26
2023-03-30T08:26:12.835Z,86.68
2023-03-30T08:27:12.832Z,85.05
2023-03-30T08:28:12.792Z,85.46
2023-03-30T08:29:12.791Z,85.01
2023-03-30T08:30:12.836Z,84.46
2023-03-30T08:31:12.807Z,83.81
2023-03-30T08:32:12.751Z,83.26
2023-03-30T08:33:12.868Z,82.45
2023-03-30T08:34:12.746Z,82.01
2023-03-30T08:35:12.705Z,81.23
2023-03-30T08:36:12.733Z,80.07
2023-03-30T08:37:12.704Z,80.41
2023-03-30T08:38:12.688Z,79.91
2023-03-30T08:39:12.661Z,81.06
2023-03-30T08:40:12.697Z,81.67
2023-03-30T08:41:12.741Z,81.30
2023-03-30T08:42:12.680Z,81.91
2023-03-30T08:43:12.705Z,82.80
2023-03-30T08:44:12.615Z,83.34
2023-03-30T08:45:12.618Z,84.16
2023-03-30T08:46:12.634Z,84.46
2023-03-30T08:47:12.596Z,84.87
2023-03-30T08:48:12.646Z,84.56
2023-03-30T08:49:12.564Z,84.56
2023-03-30T08:50:12.570Z,84.26
2023-03-30T08:51:12.602Z,83.20
2023-03-30T08:52:12.631Z,83.17
2023-03-30T08:53:12.566Z,82.86
2023-03-30T08:54:12.560Z,83.17
2023-03-30T08:55:12.555Z,83.20
2023-03-30T08:56:12.526Z,83.04
2023-03-30T08:57:12.671Z,83.45
2023-03-30T08:58:12.465Z,83.54
2023-03-30T08:59:12.484Z,83.24
2023-03-30T09:00:12.502Z,83.31
2023-03-30T09:01:12.537Z,82.80
2023-03-30T09:02:12.538Z,82.70
2023-03-30T09:03:13.318Z,82.19
2023-03-30T09:04:12.417Z,82.19
2023-03-30T09:05:12.488Z,82.73
2023-03-30T09:06:12.416Z,83.10
2023-03-30T09:07:12.468Z,82.96
2023-03-30T09:08:12.492Z,82.15
2023-03-30T09:09:12.399Z,81.91
2023-03-30T09:10:12.375Z,81.26
2023-03-30T09:11:12.434Z,81.16
2023-03-30T09:12:12.391Z,80.05
2023-03-30T09:13:12.506Z,80.29
2023-03-30T09:14:12.331Z,81.20
2023-03-30T09:15:12.320Z,81.30
2023-03-30T09:16:12.340Z,81.26
2023-03-30T09:17:12.331Z,80.35
2023-03-30T09:18:12.425Z,79.46
2023-03-30T09:19:12.269Z,77.43
2023-03-30T09:20:12.256Z,75.98
2023-03-30T09:21:12.240Z,76.28
2023-03-30T09:22:12.406Z,75.88
2023-03-30T09:23:12.263Z,75.92
2023-03-30T09:24:12.225Z,77.17
2023-03-30T09:25:12.256Z,77.57
2023-03-30T09:26:12.224Z,77.81
2023-03-30T09:27:12.199Z,78.31
2023-03-30T09:28:12.170Z,78.01
2023-03-30T09:29:12.156Z,77.71
2023-03-30T09:30:12.164Z,77.57
2023-03-30T09:31:12.175Z,77.20
2023-03-30T09:32:12.267Z,76.02
2023-03-30T09:33:12.228Z,75.78
2023-03-30T09:34:14.166Z,76.18
2023-03-30T09:35:12.138Z,74.33
2023-03-30T09:36:12.146Z,74.26
2023-03-30T09:37:12.140Z,74.16
2023-03-30T09:38:12.130Z,74.30
2023-03-30T09:39:12.102Z,75.41
2023-03-30T09:40:12.076Z,75.17
2023-03-30T09:41:12.074Z,74.97
2023-03-30T09:42:12.049Z,75.27
2023-03-30T09:43:12.056Z,75.17
2023-03-30T09:44:12.106Z,74.29
2023-03-30T09:45:11.998Z,73.72
2023-03-30T09:46:12.076Z,73.69
2023-03-30T09:47:12.026Z,73.99
2023-03-30T09:48:12.055Z,73.65
2023-03-30T09:49:11.957Z,73.42
2023-03-30T09:50:12.076Z,74.26
2023-03-30T09:51:11.983Z,74.80
2023-03-30T09:52:11.975Z,74.63
2023-03-30T09:53:11.985Z,75.55
2023-03-30T09:54:11.922Z,75.81
2023-03-30T09:55:11.913Z,75.57
2023-03-30T09:56:11.900Z,73.32
2023-03-30T09:57:11.989Z,71.91
2023-03-30T09:58:11.895Z,71.97
2023-03-30T09:59:11.916Z,71.70
2023-03-30T10:00:11.846Z,70.66
2023-03-30T10:01:11.911Z,70.46
2023-03-30T10:02:11.898Z,70.76
2023-03-30T10:03:11.957Z,70.76
2023-03-30T10:04:12.068Z,71.30
2023-03-30T10:05:11.811Z,72.54
2023-03-30T10:06:11.816Z,71.73
2023-03-30T10:07:18.500Z,73.02
2023-03-30T10:08:13.808Z,72.81
2023-03-30T10:09:11.838Z,73.75
2023-03-30T10:10:11.788Z,74.30
2023-03-30T10:11:11.801Z,73.15
2023-03-30T10:12:11.776Z,73.69
2023-03-30T10:13:11.752Z,73.39
2023-03-30T10:14:11.707Z,74.40
2023-03-30T10:15:11.755Z,73.99
2023-03-30T10:16:11.840Z,74.40
2023-03-30T10:17:11.718Z,74.40
2023-03-30T10:18:11.677Z,74.60
2023-03-30T10:19:11.668Z,73.69
2023-03-30T10:20:14.069Z,73.79
2023-03-30T10:21:12.674Z,74.43
2023-03-30T10:22:11.679Z,74.80
2023-03-30T10:23:11.698Z,74.54
2023-03-30T10:24:11.638Z,74.54
2023-03-30T10:25:11.611Z,74.60
2023-03-30T10:26:11.626Z,74.10
2023-03-30T10:27:11.616Z,73.75
2023-03-30T10:28:11.610Z,73.79
2023-03-30T10:29:11.610Z,73.79
2023-03-30T10:30:11.564Z,73.15
2023-03-30T10:31:11.669Z,73.25
2023-03-30T10:32:11.560Z,72.95
2023-03-30T10:33:11.549Z,73.08
2023-03-30T10:34:11.532Z,72.85
2023-03-30T10:35:11.537Z,73.35
2023-03-30T10:36:11.569Z,74.06
2023-03-30T10:37:12.518Z,72.85
2023-03-30T10:38:11.634Z,72.95
2023-03-30T10:39:11.503Z,72.24
2023-03-30T10:40:11.538Z,72.55
2023-03-30T10:41:11.494Z,72.34
2023-03-30T10:42:11.463Z,73.19
2023-03-30T10:43:11.477Z,72.58
2023-03-30T10:44:11.450Z,73.08
2023-03-30T10:45:11.534Z,73.90
2023-03-30T10:46:19.343Z,72.85
2023-03-30T10:47:13.432Z,72.08
2023-03-30T10:48:11.455Z,72.04
2023-03-30T10:49:12.392Z,72.55
2023-03-30T10:50:11.378Z,71.84
2023-03-30T10:51:11.406Z,72.64
2023-03-30T10:52:11.381Z,73.05
2023-03-30T10:53:11.399Z,72.55
2023-03-30T10:54:11.341Z,72.75
2023-03-30T10:55:11.417Z,72.14
2023-03-30T10:56:11.329Z,71.47
2023-03-30T10:57:11.373Z,72.38
2023-03-30T10:58:11.300Z,71.97
2023-03-30T10:59:11.288Z,72.38
2023-03-30T11:00:11.308Z,72.17
2023-03-30T11:01:11.269Z,72.38
2023-03-30T11:02:11.322Z,71.97
2023-03-30T11:03:11.461Z,71.64
2023-03-30T11:04:22.638Z,71.84
2023-03-30T11:05:13.238Z,71.50
2023-03-30T11:06:11.227Z,70.76
2023-03-30T11:07:11.211Z,70.86
2023-03-30T11:08:11.284Z,69.72
2023-03-30T11:09:11.224Z,70.32
2023-03-30T11:10:11.179Z,69.68
2023-03-30T11:11:11.187Z,68.07
2023-03-30T11:12:11.156Z,68.54
2023-03-30T11:13:11.124Z,68.34
2023-03-30T11:14:11.170Z,68.17
2023-03-30T11:15:11.132Z,69.05
2023-03-30T11:16:11.174Z,68.57
2023-03-30T11:17:11.126Z,68.95
2023-03-30T11:18:11.110Z,69.05
2023-03-30T11:19:11.147Z,68.04
2023-03-30T11:20:11.078Z,68.85
2023-03-30T11:21:11.068Z,69.01
2023-03-30T11:22:11.062Z,68.48
2023-03-30T11:23:11.050Z,67.24
2023-03-30T11:24:11.071Z,66.83
2023-03-30T11:25:11.012Z,65.12
2023-03-30T11:26:11.061Z,66.63
2023-03-30T11:27:11.023Z,65.62
2023-03-30T11:28:11.033Z,65.39
2023-03-30T11:29:11.009Z,65.33
2023-03-30T11:30:10.995Z,65.12
2023-03-30T11:31:10.946Z,65.86
2023-03-30T11:32:11.088Z,66.67
2023-03-30T11:33:11.018Z,65.69
2023-03-30T11:34:10.952Z,66.90
2023-03-30T11:35:10.938Z,67.13
2023-03-30T11:36:11.002Z,67.63
2023-03-30T11:37:10.959Z,67.27
2023-03-30T11:38:10.925Z,67.36
2023-03-30T11:39:21.361Z,67.60
2023-03-30T11:40:11.889Z,67.40
2023-03-30T11:41:10.871Z,67.19
2023-03-30T11:42:10.873Z,67.67
2023-03-30T11:43:10.866Z,67.19
2023-03-30T11:44:10.884Z,67.70
2023-03-30T11:45:10.820Z,68.41
2023-03-30T11:46:11.184Z,68.10
2023-03-30T11:47:10.794Z,68.10
2023-03-30T11:48:10.892Z,68.07
2023-03-30T11:49:10.811Z,66.96
2023-03-30T11:50:10.780Z,66.83
2023-03-30T11:51:10.851Z,66.33
2023-03-30T11:52:10.792Z,65.52
2023-03-30T11:53:10.771Z,66.09
2023-03-30T11:54:10.776Z,65.52
2023-03-30T11:55:10.763Z,65.52
2023-03-30T11:56:10.750Z,65.72
2023-03-30T11:57:10.757Z,65.92
2023-03-30T11:58:10.744Z,65.72
2023-03-30T11:59:10.709Z,65.52
2023-03-30T12:00:10.734Z,62.43
2023-03-30T12:01:10.709Z,60.77
2023-03-30T12:02:10.718Z,65.13
2023-03-30T12:03:10.793Z,67.14
2023-03-30T12:04:10.815Z,71.06
2023-03-30T12:05:10.716Z,73.87
2023-03-30T12:06:10.664Z,75.05
2023-03-30T12:07:10.697Z,76.51
2023-03-30T12:08:10.616Z,76.86
2023-03-30T12:09:10.602Z,78.41
2023-03-30T12:10:10.619Z,77.94
2023-03-30T12:11:10.592Z,79.10
2023-03-30T12:12:10.585Z,79.10
2023-03-30T12:13:10.572Z,80.66
2023-03-30T12:14:10.573Z,81.11
2023-03-30T12:15:10.602Z,82.54
2023-03-30T12:16:10.593Z,83.15
2023-03-30T12:17:10.542Z,83.29
2023-03-30T12:18:10.602Z,82.57
2023-03-30T12:19:10.567Z,82.47
2023-03-30T12:20:10.543Z,82.41
2023-03-30T12:21:10.541Z,83.23
2023-03-30T12:22:10.498Z,85.06
2023-03-30T12:23:10.539Z,85.68
2023-03-30T12:24:10.487Z,85.68
2023-03-30T12:25:10.477Z,84.72
2023-03-30T12:26:10.543Z,84.90
2023-03-30T12:27:11.737Z,86.69
2023-03-30T12:28:10.466Z,86.08
2023-03-30T12:29:36.031Z,83.49
2023-03-30T12:30:12.446Z,84.11
2023-03-30T12:31:10.429Z,85.47
2023-03-30T12:32:10.390Z,86.15
2023-03-30T12:33:10.433Z,85.43
2023-03-30T12:34:10.395Z,83.90
2023-03-30T12:35:10.420Z,85.10
2023-03-30T12:36:10.411Z,85.61
2023-03-30T12:37:10.381Z,85.51
2023-03-30T12:38:10.327Z,85.21
2023-03-30T12:39:10.318Z,86.59
2023-03-30T12:40:10.329Z,85.06
2023-03-30T12:41:10.355Z,85.16
2023-03-30T12:42:10.321Z,83.33
2023-03-30T12:43:10.372Z,85.37
2023-03-30T12:44:10.295Z,84.61
2023-03-30T12:45:10.248Z,83.59
2023-03-30T12:46:10.348Z,82.47
2023-03-30T12:47:12.223Z,83.45
2023-03-30T12:48:11.273Z,83.65
2023-03-30T12:49:10.237Z,83.65
2023-03-30T12:50:10.225Z,83.56
2023-03-30T12:51:10.235Z,82.43
2023-03-30T12:52:10.204Z,79.68